Time;durP1;ratioP1;P1;durP2;ratioP2;P2;SDS_P1;SDS_P2;PMS_P1;PMS_P2;Temp;Humidity;BMP_temperature;BMP_pressure;BME280_temperature;BME280_humidity;BME280_pressure;Samples;Min_cycle;Max_cycle;Signal;HPM_P1;HPM_P2
2021/07/19 00:00:09;;;;;;;23.30;18.20;;;;;;;22.86;85.76;98870.28;5108244;28;20035;-57
2021/07/19 00:02:35;;;;;;;21.15;18.83;;;;;;;23.12;85.75;98909.50;5111486;28;20359;-58
2021/07/19 00:05:00;;;;;;;21.90;18.58;;;;;;;23.10;85.73;98914.88;5117640;28;20059;-58
2021/07/19 00:07:26;;;;;;;22.40;19.27;;;;;;;23.12;85.65;98920.06;5121205;28;20048;-58
2021/07/19 00:09:52;;;;;;;20.75;17.90;;;;;;;23.10;85.66;98922.81;5103099;28;20020;-58
2021/07/19 00:12:18;;;;;;;20.58;17.50;;;;;;;23.08;85.49;98916.81;5119797;28;20023;-57
2021/07/19 00:14:46;;;;;;;21.77;17.85;;;;;;;23.06;85.31;98916.13;5114969;28;20266;-57
2021/07/19 00:17:14;;;;;;;19.63;17.60;;;;;;;23.05;84.83;98903.88;5106831;28;20325;-57
2021/07/19 00:19:39;;;;;;;20.10;16.70;;;;;;;23.07;85.34;98909.88;5106262;28;20348;-57
2021/07/19 00:22:06;;;;;;;22.67;17.67;;;;;;;23.06;85.35;98910.84;5115923;28;20030;-57
2021/07/19 00:24:32;;;;;;;23.02;17.40;;;;;;;23.06;85.54;98910.84;5121562;28;20382;-57
2021/07/19 00:26:59;;;;;;;19.65;17.42;;;;;;;23.04;85.89;98917.22;5116828;28;20055;-58
2021/07/19 00:29:25;;;;;;;20.35;16.90;;;;;;;22.97;85.75;98905.50;5112363;28;20286;-58
2021/07/19 00:31:51;;;;;;;19.65;17.35;;;;;;;22.94;85.91;98911.88;5125424;28;20090;-58
2021/07/19 00:34:17;;;;;;;21.23;16.48;;;;;;;22.96;85.83;98914.38;5126595;28;20043;-58
2021/07/19 00:36:42;;;;;;;21.90;16.13;;;;;;;;;;5126785;28;20035;-58
2021/07/19 00:39:10;;;;;;;19.60;16.30;;;;;;;22.70;85.55;98859.34;5126673;28;20023;-58
2021/07/19 00:41:38;;;;;;;19.45;15.38;;;;;;;22.93;85.30;98911.03;5115232;28;20055;-58
2021/07/19 00:44:05;;;;;;;22.27;16.98;;;;;;;;;;5106816;28;20050;-58
2021/07/19 00:46:31;;;;;;;20.83;15.25;;;;;;;22.99;85.18;98914.97;5114903;28;20056;-58
2021/07/19 00:48:57;;;;;;;22.33;16.35;;;;;;;23.02;85.29;98904.13;5106566;28;20043;-58
2021/07/19 00:51:25;;;;;;;19.15;16.50;;;;;;;22.71;85.05;98859.22;5123077;28;20269;-58
2021/07/19 00:53:51;;;;;;;22.75;16.15;;;;;;;22.99;85.44;98912.31;5126093;28;20055;-58
2021/07/19 00:56:19;;;;;;;19.33;16.00;;;;;;;23.03;85.02;98902.31;5125889;28;20263;-58
2021/07/19 00:58:48;;;;;;;20.35;16.60;;;;;;;22.96;85.05;98888.81;5110764;28;20043;-58
2021/07/19 01:01:15;;;;;;;22.35;16.95;;;;;;;23.01;85.02;98906.91;5117911;28;20122;-58
2021/07/19 01:03:43;;;;;;;20.73;16.80;;;;;;;23.03;85.01;98905.81;5106300;28;20356;-58
2021/07/19 01:06:11;;;;;;;21.25;15.90;;;;;;;22.74;84.46;98852.84;5113912;28;20043;-58
2021/07/19 01:08:37;;;;;;;21.10;17.42;;;;;;;23.02;84.54;98892.75;5106657;28;20262;-58
2021/07/19 01:11:04;;;;;;;18.40;16.50;;;;;;;23.01;84.29;98891.06;5121095;28;20035;-58
2021/07/19 01:13:32;;;;;;;24.42;18.30;;;;;;;22.96;85.06;98893.25;5125761;28;20261;-58
2021/07/19 01:15:57;;;;;;;23.98;17.55;;;;;;;22.91;85.13;98886.56;5111925;28;20032;-58
2021/07/19 01:18:23;;;;;;;22.75;18.45;;;;;;;22.90;85.30;98894.63;5114382;28;20040;-57
2021/07/19 01:21:04;;;;;;;22.13;17.90;;;;;;;22.86;85.51;98896.69;5117639;28;20262;-58
2021/07/19 01:23:48;;;;;;;22.80;17.30;;;;;;;22.83;85.93;98902.25;5115509;28;20046;-57
2021/07/19 01:26:31;;;;;;;20.70;16.95;;;;;;;22.83;86.46;98899.59;5106013;28;20074;-58
2021/07/19 01:28:58;;;;;;;19.05;16.52;;;;;;;22.85;85.34;98908.22;5111657;28;20058;-58
2021/07/19 01:31:29;;;;;;;20.70;18.50;;;;;;;22.66;85.27;98869.34;5116083;28;20130;-58
2021/07/19 01:34:22;;;;;;;25.67;16.70;;;;;;;22.66;85.08;98876.41;5105976;28;20110;-57
2021/07/19 01:36:53;;;;;;;19.65;16.92;;;;;;;22.83;85.36;98893.47;5105756;28;20040;-58
2021/07/19 01:39:20;;;;;;;26.65;18.00;;;;;;;22.83;85.17;98896.09;5122835;28;20059;-57
2021/07/19 01:41:47;;;;;;;22.85;17.35;;;;;;;22.83;85.49;98904.03;5121517;28;20086;-57
2021/07/19 01:44:14;;;;;;;19.98;17.85;;;;;;;22.80;85.25;98904.28;5105040;28;20091;-57
2021/07/19 01:46:41;;;;;;;19.05;17.05;;;;;;;22.80;85.38;98905.13;5105565;28;20048;-57
2021/07/19 01:49:07;;;;;;;23.95;16.58;;;;;;;22.81;85.47;98905.97;5112824;28;20043;-56
2021/07/19 01:51:33;;;;;;;22.13;17.45;;;;;;;22.80;85.35;98901.66;5124820;28;20332;-57
2021/07/19 01:54:00;;;;;;;19.70;16.83;;;;;;;22.84;84.95;98909.19;5125360;28;20088;-57
2021/07/19 01:56:27;;;;;;;18.02;16.23;;;;;;;22.83;85.42;98911.94;5107258;28;20047;-57
2021/07/19 01:58:56;;;;;;;20.38;16.75;;;;;;;22.82;85.60;98913.75;5110611;28;20031;-57
2021/07/19 02:01:22;;;;;;;20.05;17.88;;;;;;;22.87;85.49;98905.44;5122557;28;20039;-57
2021/07/19 02:03:48;;;;;;;21.98;18.33;;;;;;;22.84;85.80;98901.25;5122201;28;20035;-57
2021/07/19 02:06:15;;;;;;;19.20;17.02;;;;;;;22.83;85.70;98904.88;5125001;28;20051;-57
2021/07/19 02:08:42;;;;;;;20.48;16.73;;;;;;;22.92;85.06;98905.91;5116939;28;20043;-58
2021/07/19 02:11:10;;;;;;;20.83;16.80;;;;;;;22.93;85.24;98903.13;5117387;28;20355;-58
2021/07/19 02:13:41;;;;;;;19.45;17.08;;;;;;;22.68;85.18;98864.78;5115970;28;20063;-58
2021/07/19 02:16:08;;;;;;;22.63;18.33;;;;;;;22.93;84.99;98902.25;5117708;28;20238;-58
2021/07/19 02:18:38;;;;;;;21.67;18.08;;;;;;;22.93;85.89;98905.75;5104843;28;20070;-58
2021/07/19 02:21:06;;;;;;;21.48;17.30;;;;;;;22.96;85.55;98898.53;5119647;28;20040;-58
2021/07/19 02:23:36;;;;;;;23.92;18.50;;;;;;;23.05;85.74;98908.31;5105916;28;20056;-58
2021/07/19 02:26:05;;;;;;;19.00;16.95;;;;;;;23.12;85.15;98906.84;5104850;28;20036;-58
2021/07/19 02:28:35;;;;;;;21.63;18.25;;;;;;;23.20;84.66;98906.19;5123272;28;20058;-58
2021/07/19 02:31:05;;;;;;;18.63;16.70;;;;;;;23.22;84.56;98894.50;5124485;28;20046;-59
2021/07/19 02:33:33;;;;;;;22.15;16.92;;;;;;;23.28;84.59;98903.72;5116137;28;20044;-59
2021/07/19 02:35:59;;;;;;;20.33;17.27;;;;;;;23.28;84.74;98903.72;5118369;28;20039;-58
2021/07/19 02:38:27;;;;;;;17.92;15.93;;;;;;;23.03;84.00;98860.06;5105904;28;20371;-58
2021/07/19 02:40:53;;;;;;;18.05;16.13;;;;;;;23.32;84.72;98905.13;5124223;28;20313;-57
2021/07/19 02:43:23;;;;;;;20.50;16.90;;;;;;;23.10;84.81;98869.13;5124070;28;20047;-57
2021/07/19 02:45:53;;;;;;;23.70;17.38;;;;;;;23.08;84.68;98863.97;5116197;28;20366;-58
2021/07/19 02:48:19;;;;;;;22.30;17.45;;;;;;;23.35;84.52;98918.06;5123947;28;20054;-58
2021/07/19 02:50:48;;;;;;;21.52;16.58;;;;;;;23.35;84.47;98922.53;5124084;28;20043;-57
2021/07/19 02:53:16;;;;;;;20.63;16.27;;;;;;;23.35;84.40;98909.31;5105883;28;20368;-57
2021/07/19 02:55:45;;;;;;;18.92;15.93;;;;;;;23.41;84.30;98914.03;5107176;28;20043;-57
2021/07/19 02:58:16;;;;;;;19.75;15.40;;;;;;;23.14;84.48;98865.28;5108234;28;20051;-57
2021/07/19 03:00:43;;;;;;;;;;;;;;;23.40;85.05;98909.72;5112828;28;20035;-57
2021/07/19 03:03:13;;;;;;;22.15;16.15;;;;;;;23.35;84.24;98917.25;5103882;28;19935;-58
2021/07/19 03:05:44;;;;;;;19.00;15.77;;;;;;;23.12;83.91;98867.22;5112272;28;20040;-59
2021/07/19 03:08:12;;;;;;;19.38;15.23;;;;;;;23.48;83.98;98917.81;5119866;28;20055;-59
2021/07/19 03:10:41;;;;;;;15.98;14.32;;;;;;;23.43;83.87;98896.28;5123383;28;20329;-59
2021/07/19 03:13:12;;;;;;;21.98;16.48;;;;;;;23.52;84.04;98913.94;5116568;28;20256;-58
2021/07/19 03:15:39;;;;;;;17.67;15.77;;;;;;;23.56;83.71;98912.72;5103968;28;20367;-58
2021/07/19 03:18:08;;;;;;;20.73;16.05;;;;;;;23.58;83.13;98908.09;5103946;28;20044;-58
2021/07/19 03:20:36;;;;;;;20.75;16.58;;;;;;;23.65;83.39;98915.50;5115895;28;20350;-59
2021/07/19 03:23:05;;;;;;;20.05;15.40;;;;;;;23.40;83.28;98865.66;5103669;28;20242;-59
2021/07/19 03:25:32;;;;;;;22.75;17.02;;;;;;;23.68;82.67;98917.88;5103546;28;20046;-58
2021/07/19 03:28:00;;;;;;;21.77;17.55;;;;;;;23.42;83.12;98881.38;5104010;28;20054;-58
2021/07/19 03:30:27;;;;;;;24.23;18.05;;;;;;;23.72;83.01;98924.56;5122955;28;20323;-58
2021/07/19 03:32:53;;;;;;;22.00;17.52;;;;;;;23.69;83.28;98935.44;5118214;28;20043;-58
2021/07/19 03:35:23;;;;;;;19.67;17.30;;;;;;;23.68;82.98;98931.09;5120096;28;20051;-58
2021/07/19 03:37:50;;;;;;;22.23;15.98;;;;;;;23.72;82.88;98930.69;5123213;28;20046;-58
2021/07/19 03:40:23;;;;;;;20.20;15.60;;;;;;;23.45;82.48;98883.75;5122739;28;20039;-58
2021/07/19 03:42:53;;;;;;;24.27;16.67;;;;;;;23.74;82.51;98943.78;5123212;28;20051;-58
2021/07/19 03:45:19;;;;;;;18.05;15.55;;;;;;;23.77;82.85;98936.41;5106659;28;20032;-58
2021/07/19 03:47:46;;;;;;;17.13;15.02;;;;;;;23.82;82.31;98936.00;5123236;28;20049;-58
2021/07/19 03:50:13;;;;;;;19.08;15.55;;;;;;;23.86;82.15;98931.28;5109397;28;20054;-58
2021/07/19 03:52:40;;;;;;;22.85;14.55;;;;;;;23.92;81.74;98936.88;5106595;28;20061;-58
2021/07/19 03:55:08;;;;;;;17.23;13.98;;;;;;;23.88;82.02;98935.47;5089783;28;20064;-58
2021/07/19 03:57:36;;;;;;;19.17;14.68;;;;;;;23.69;82.05;98895.78;5119569;28;20039;-58
2021/07/19 04:00:15;;;;;;;17.65;14.15;;;;;;;24.03;81.66;98945.66;5086341;28;20043;-58
2021/07/19 04:02:44;;;;;;;16.35;14.60;;;;;;;24.04;81.94;98931.47;5111400;28;20262;-57
2021/07/19 04:05:14;;;;;;;16.08;14.00;;;;;;;24.03;82.62;98929.78;5102928;28;20288;-58
2021/07/19 04:07:43;;;;;;;19.02;15.52;;;;;;;24.07;82.69;98955.00;5111218;28;20048;-58
2021/07/19 04:10:11;;;;;;;17.45;14.27;;;;;;;24.09;82.44;98943.31;5105162;28;20338;-58
2021/07/19 04:12:40;;;;;;;21.60;16.17;;;;;;;24.11;81.92;98959.03;5106473;28;20051;-58
2021/07/19 04:15:07;;;;;;;21.48;15.65;;;;;;;24.10;82.21;98928.28;5107701;28;20051;-58
2021/07/19 04:17:33;;;;;;;18.48;15.73;;;;;;;24.11;82.17;98924.66;5102943;28;20047;-58
2021/07/19 04:20:06;;;;;;;17.27;14.60;;;;;;;23.93;81.42;98892.78;5103126;28;20016;-58
2021/07/19 04:22:33;;;;;;;20.15;15.07;;;;;;;23.88;81.10;98879.94;5106169;28;20040;-58
2021/07/19 04:25:03;;;;;;;19.90;15.45;;;;;;;24.15;81.52;98931.34;5122656;28;20039;-58
2021/07/19 04:27:29;;;;;;;17.75;14.10;;;;;;;24.12;81.24;98921.84;5120574;28;20046;-58
2021/07/19 04:29:54;;;;;;;21.40;15.32;;;;;;;24.12;81.30;98928.97;5102825;28;20235;-58
2021/07/19 04:32:21;;;;;;;18.45;15.27;;;;;;;24.21;80.89;98930.75;5105153;28;20024;-58
2021/07/19 04:34:48;;;;;;;17.58;14.90;;;;;;;24.29;80.56;98925.63;5102760;28;20051;-57
2021/07/19 04:37:15;;;;;;;21.05;14.95;;;;;;;24.37;80.44;98935.53;5119123;28;20035;-58
2021/07/19 04:39:41;;;;;;;19.70;14.00;;;;;;;24.43;79.98;98934.13;5122513;28;20131;-58
2021/07/19 04:42:08;;;;;;;16.15;14.13;;;;;;;24.53;79.52;98928.84;5115492;28;20058;-58
2021/07/19 04:44:34;;;;;;;17.77;13.45;;;;;;;24.59;79.29;98934.38;5102695;28;20089;-58
2021/07/19 04:47:01;;;;;;;16.17;14.05;;;;;;;24.74;78.26;98923.38;5102733;28;20056;-58
2021/07/19 04:49:27;;;;;;;19.42;14.32;;;;;;;24.71;78.23;98928.97;5110990;28;20038;-58
2021/07/19 04:51:54;;;;;;;17.38;14.88;;;;;;;24.68;78.37;98931.91;5104635;28;20047;-59
2021/07/19 04:54:26;;;;;;;19.02;14.50;;;;;;;24.68;78.76;98950.44;5102593;28;20282;-57
2021/07/19 04:56:58;;;;;;;16.70;13.02;;;;;;;24.78;78.16;98935.34;5110671;28;20047;-59
2021/07/19 04:59:27;;;;;;;18.00;12.40;;;;;;;24.82;77.15;98926.16;5103776;28;20047;-59
2021/07/19 05:01:55;;;;;;;16.83;14.30;;;;;;;24.73;77.49;98927.84;5116868;28;20391;-58
2021/07/19 05:04:25;;;;;;;20.38;13.77;;;;;;;24.77;77.82;98938.97;5108696;28;20044;-59
2021/07/19 05:06:56;;;;;;;15.40;13.82;;;;;;;24.71;78.27;98934.25;5121963;28;20043;-59
2021/07/19 05:09:24;;;;;;;18.80;14.10;;;;;;;24.75;77.90;98933.81;5121248;28;20039;-58
2021/07/19 05:11:51;;;;;;;18.50;13.80;;;;;;;24.90;78.06;98936.03;5108605;28;20070;-58
2021/07/19 05:14:17;;;;;;;18.75;13.02;;;;;;;24.93;78.02;98933.94;5121944;28;20051;-58
2021/07/19 05:16:44;;;;;;;15.07;13.55;;;;;;;24.86;77.29;98902.88;5110252;28;20044;-58
2021/07/19 05:19:11;;;;;;;15.63;13.13;;;;;;;25.19;76.81;98935.09;5120933;28;20050;-58
2021/07/19 05:21:39;;;;;;;16.15;13.32;;;;;;;25.30;76.18;98940.22;5110289;28;20054;-58
2021/07/19 05:24:05;;;;;;;18.92;13.77;;;;;;;25.13;76.34;98939.16;5125850;28;20233;-58
2021/07/19 05:26:33;;;;;;;16.45;14.73;;;;;;;25.11;76.37;98934.03;5123366;28;20058;-58
2021/07/19 05:29:00;;;;;;;16.38;13.02;;;;;;;25.37;75.20;98937.84;5120303;28;20066;-59
2021/07/19 05:31:26;;;;;;;15.00;13.27;;;;;;;25.48;75.35;98932.34;5108551;28;20056;-58
2021/07/19 05:33:53;;;;;;;17.05;13.85;;;;;;;25.47;75.60;98949.25;5087812;28;20044;-58
2021/07/19 05:36:19;;;;;;;17.10;13.30;;;;;;;25.56;75.47;98935.09;5107052;28;20055;-57
2021/07/19 05:38:45;;;;;;;19.10;13.98;;;;;;;25.54;75.60;98925.63;5119823;28;20059;-58
2021/07/19 05:41:12;;;;;;;16.17;11.98;;;;;;;25.76;74.85;98929.69;5113198;28;20051;-58
2021/07/19 05:43:38;;;;;;;14.82;12.80;;;;;;;25.72;74.41;98931.78;5110344;28;20050;-58
2021/07/19 05:46:05;;;;;;;16.02;13.73;;;;;;;25.67;74.47;98932.25;5113482;28;20051;-59
2021/07/19 05:48:31;;;;;;;16.80;13.00;;;;;;;25.70;74.70;98919.69;5112815;28;20036;-57
2021/07/19 05:50:57;;;;;;;15.52;12.20;;;;;;;25.82;74.18;98937.91;5113473;28;20039;-57
2021/07/19 05:53:24;;;;;;;14.48;12.50;;;;;;;25.89;73.71;98931.97;5116280;28;20051;-58
2021/07/19 05:55:50;;;;;;;13.63;11.45;;;;;;;26.04;73.79;98932.31;5111600;28;20371;-58
2021/07/19 05:58:17;;;;;;;14.02;11.50;;;;;;;26.02;74.13;98929.81;5114717;28;20043;-58
2021/07/19 06:00:43;;;;;;;14.00;10.50;;;;;;;26.04;72.81;98932.31;5111597;28;20055;-58
2021/07/19 06:03:09;;;;;;;16.85;10.35;;;;;;;25.99;73.01;98938.88;5118390;28;20035;-58
2021/07/19 06:05:36;;;;;;;14.73;9.80;;;;;;;26.00;72.84;98937.94;5116723;28;20069;-58
2021/07/19 06:08:04;;;;;;;13.80;9.65;;;;;;;26.01;72.05;98905.09;5118327;28;20050;-58
2021/07/19 06:10:30;;;;;;;14.05;10.20;;;;;;;26.25;71.75;98930.22;5104674;28;20043;-57
2021/07/19 06:12:56;;;;;;;11.75;10.50;;;;;;;26.36;71.19;98937.09;5104755;28;20073;-58
2021/07/19 06:15:23;;;;;;;12.02;10.07;;;;;;;26.40;71.23;98929.66;5104974;28;20052;-58
2021/07/19 06:17:50;;;;;;;13.73;10.48;;;;;;;26.49;71.10;98936.69;5117414;28;20040;-59
2021/07/19 06:20:18;;;;;;;11.35;10.15;;;;;;;26.20;71.24;98897.16;5108044;28;20047;-58
2021/07/19 06:22:46;;;;;;;12.13;10.57;;;;;;;26.42;71.31;98944.44;5113698;28;20055;-59
2021/07/19 06:25:14;;;;;;;13.52;11.40;;;;;;;26.42;70.99;98947.09;5116031;28;20051;-59
2021/07/19 06:27:41;;;;;;;15.38;11.85;;;;;;;26.41;71.48;98948.09;5112641;28;20054;-58
2021/07/19 06:30:09;;;;;;;16.08;11.48;;;;;;;26.44;70.69;98934.50;5112094;28;20051;-57
2021/07/19 06:32:35;;;;;;;12.00;10.52;;;;;;;26.40;71.30;98937.63;5114225;28;20237;-58
2021/07/19 06:35:01;;;;;;;12.05;10.63;;;;;;;26.44;70.46;98946.97;5104472;28;20051;-58
2021/07/19 06:37:27;;;;;;;12.27;10.20;;;;;;;26.55;69.66;98949.38;5104869;28;20036;-58
2021/07/19 06:39:53;;;;;;;13.02;10.25;;;;;;;26.68;69.37;98949.84;5115570;28;20320;-58
2021/07/19 06:42:19;;;;;;;14.45;11.68;;;;;;;26.76;70.27;98941.06;5120663;28;20030;-60
2021/07/19 06:44:50;;;;;;;12.63;10.90;;;;;;;26.76;69.49;98941.06;5111823;28;20044;-61
2021/07/19 06:47:15;;;;;;;12.25;10.73;;;;;;;26.84;68.20;98940.31;5109874;28;20051;-60
2021/07/19 06:49:41;;;;;;;13.45;10.38;;;;;;;26.92;69.34;98935.06;5114219;28;20076;-60
2021/07/19 06:52:07;;;;;;;14.27;10.20;;;;;;;26.93;68.36;98942.03;5119660;28;20080;-59
2021/07/19 06:54:33;;;;;;;13.05;10.70;;;;;;;26.94;68.32;98932.25;5104552;28;20032;-60
2021/07/19 06:56:59;;;;;;;13.32;9.95;;;;;;;27.07;68.25;98929.16;5104164;28;20028;-59
2021/07/19 06:59:25;;;;;;;13.23;11.10;;;;;;;27.18;68.71;98937.69;5104031;28;20349;-59
2021/07/19 07:01:51;;;;;;;11.68;10.02;;;;;;;27.20;67.56;98943.66;5104433;28;20049;-59
2021/07/19 07:04:17;;;;;;;11.95;10.32;;;;;;;27.17;66.98;98935.19;5090879;28;20024;-58
2021/07/19 07:06:42;;;;;;;12.50;10.30;;;;;;;27.21;66.84;98955.97;5110229;28;20074;-60
2021/07/19 07:09:08;;;;;;;12.82;10.40;;;;;;;26.93;66.59;98912.78;5105329;28;20016;-60
2021/07/19 07:11:34;;;;;;;12.38;10.50;;;;;;;27.10;66.79;98950.09;5114509;28;20024;-58
2021/07/19 07:14:00;;;;;;;12.40;10.43;;;;;;;27.02;68.25;98949.06;5109276;28;20020;-58
2021/07/19 07:16:26;;;;;;;13.98;10.70;;;;;;;27.01;68.40;98957.19;5112104;28;20063;-57
2021/07/19 07:18:52;;;;;;;13.10;10.27;;;;;;;27.03;68.06;98961.34;5108688;28;20332;-59
2021/07/19 07:21:18;;;;;;;14.55;10.57;;;;;;;27.06;67.69;98962.03;5106718;28;20077;-59
2021/07/19 07:23:44;;;;;;;11.50;10.35;;;;;;;27.05;67.96;98961.22;5115260;28;20034;-58
2021/07/19 07:26:10;;;;;;;11.23;9.77;;;;;;;27.16;67.59;98962.75;5102082;28;20098;-59
2021/07/19 07:28:35;;;;;;;11.25;9.57;;;;;;;27.28;67.48;98968.63;5112881;28;20245;-59
2021/07/19 07:31:01;;;;;;;10.52;9.35;;;;;;;27.37;66.94;98967.72;5110751;28;20008;-58
2021/07/19 07:33:27;;;;;;;15.25;9.90;;;;;;;27.28;67.46;98964.16;5115193;28;20047;-58
2021/07/19 07:35:53;;;;;;;12.65;9.77;;;;;;;27.15;66.68;98961.09;5118032;28;20039;-58
2021/07/19 07:38:19;;;;;;;13.20;10.65;;;;;;;27.22;66.45;98970.09;5107299;28;20019;-59
2021/07/19 07:40:48;;;;;;;13.43;11.23;;;;;;;27.29;65.88;98970.31;5111009;28;20030;-59
2021/07/19 07:43:14;;;;;;;12.00;10.18;;;;;;;27.24;66.50;98957.50;5105696;28;20047;-59
2021/07/19 07:45:40;;;;;;;14.40;10.45;;;;;;;27.21;66.93;98960.47;5114307;28;20289;-60
2021/07/19 07:48:06;;;;;;;15.38;10.52;;;;;;;27.15;65.67;98956.63;5107465;28;20039;-60
2021/07/19 07:50:31;;;;;;;13.75;10.25;;;;;;;27.18;66.39;98948.31;5105019;28;20019;-58
2021/07/19 07:52:57;;;;;;;14.25;10.38;;;;;;;27.19;66.13;98954.47;5122337;28;20054;-59
2021/07/19 07:55:24;;;;;;;12.68;10.25;;;;;;;27.26;65.65;98965.31;5112868;28;20043;-58
2021/07/19 07:57:50;;;;;;;16.65;10.02;;;;;;;27.15;65.51;98961.09;5102366;28;20187;-58
2021/07/19 08:00:19;;;;;;;12.10;10.05;;;;;;;27.10;66.15;98950.09;5119105;28;20091;-57
2021/07/19 08:02:45;;;;;;;13.48;9.55;;;;;;;27.17;65.72;98961.78;5102645;28;20040;-58
2021/07/19 08:05:12;;;;;;;12.02;10.00;;;;;;;27.22;65.38;98956.78;5111717;28;20296;-57
2021/07/19 08:07:39;;;;;;;11.02;9.55;;;;;;;27.23;64.87;98950.50;5104604;28;20048;-57
2021/07/19 08:10:07;;;;;;;13.32;9.73;;;;;;;27.23;64.63;98949.69;5102181;28;20040;-57
2021/07/19 08:12:33;;;;;;;13.63;10.25;;;;;;;27.38;64.24;98940.16;5118443;28;20039;-56
2021/07/19 08:14:59;;;;;;;12.73;9.65;;;;;;;27.44;63.57;98942.16;5102960;28;20099;-56
2021/07/19 08:17:27;;;;;;;13.98;9.43;;;;;;;27.42;62.32;98936.19;5111788;28;20082;-56
2021/07/19 08:19:56;;;;;;;12.10;9.40;;;;;;;27.51;63.68;98937.03;5122385;28;20047;-56
2021/07/19 08:22:23;;;;;;;12.27;9.70;;;;;;;27.52;62.59;98941.34;5118527;28;20055;-57
2021/07/19 08:24:49;;;;;;;11.07;9.00;;;;;;;27.40;61.95;98911.53;5110558;28;20070;-56
2021/07/19 08:27:15;;;;;;;10.43;8.88;;;;;;;27.75;62.31;98932.78;5084219;28;20059;-56
2021/07/19 08:29:41;;;;;;;13.30;9.85;;;;;;;27.77;61.73;98934.28;5100714;28;20028;-56
2021/07/19 08:32:07;;;;;;;12.70;9.35;;;;;;;27.81;61.51;98929.47;5084604;28;20064;-57
2021/07/19 08:34:33;;;;;;;15.98;10.00;;;;;;;27.73;61.75;98927.59;5102384;28;20042;-57
2021/07/19 08:37:00;;;;;;;12.60;9.45;;;;;;;27.89;61.91;98929.47;5101789;28;20360;-57
2021/07/19 08:39:26;;;;;;;11.35;9.07;;;;;;;27.70;58.91;98915.47;5100608;28;20054;-57
2021/07/19 08:41:52;;;;;;;10.68;8.95;;;;;;;27.86;58.43;98925.34;5101532;28;20063;-58
2021/07/19 08:44:19;;;;;;;11.02;8.50;;;;;;;27.92;57.99;98928.31;5111406;28;20054;-57
2021/07/19 08:46:47;;;;;;;10.77;8.30;;;;;;;28.00;58.77;98920.38;5113221;28;20056;-56
2021/07/19 08:49:13;;;;;;;10.98;8.90;;;;;;;27.88;58.54;98909.19;5110319;28;20040;-56
2021/07/19 08:51:41;;;;;;;13.68;9.15;;;;;;;27.97;59.26;98913.53;5113790;28;20050;-57
2021/07/19 08:54:10;;;;;;;16.33;9.38;;;;;;;27.88;59.39;98882.59;5121528;28;20069;-56
2021/07/19 08:56:38;;;;;;;10.52;9.20;;;;;;;28.16;59.35;98917.75;5118845;28;20051;-57
2021/07/19 08:59:06;;;;;;;11.13;9.30;;;;;;;28.32;59.06;98908.09;5114592;28;20105;-57
2021/07/19 09:01:33;;;;;;;10.13;9.13;;;;;;;28.22;56.35;98902.94;5106088;28;20060;-57
2021/07/19 09:03:59;;;;;;;10.57;8.75;;;;;;;28.35;57.21;98895.28;5115186;28;20063;-57
2021/07/19 09:06:25;;;;;;;12.68;8.93;;;;;;;28.34;56.58;98900.78;5119875;28;20152;-57
2021/07/19 09:08:53;;;;;;;11.57;8.40;;;;;;;28.30;56.91;98872.81;5117381;28;20047;-58
2021/07/19 09:11:21;;;;;;;12.18;9.15;;;;;;;28.50;57.16;98915.91;5124313;28;20043;-58
2021/07/19 09:14:02;;;;;;;9.98;8.73;;;;;;;28.35;55.34;98881.97;5110000;28;20050;-58
2021/07/19 09:16:39;;;;;;;13.90;10.55;;;;;;;28.63;56.48;98900.25;5113889;28;20337;-57
2021/07/19 09:19:06;;;;;;;11.60;8.80;;;;;;;28.39;54.92;98899.28;5107038;28;20539;-58
2021/07/19 09:21:34;;;;;;;17.92;9.73;;;;;;;28.42;55.37;98898.94;5113481;28;20059;-58
2021/07/19 09:24:08;;;;;;;12.60;8.85;;;;;;;28.51;55.09;98907.75;5111018;28;20039;-57
2021/07/19 09:26:35;;;;;;;9.93;8.80;;;;;;;28.60;55.53;98911.22;5113801;28;20043;-57
2021/07/19 09:29:04;;;;;;;15.80;9.90;;;;;;;28.38;54.37;98856.81;5105515;28;20047;-57
2021/07/19 09:31:44;;;;;;;12.13;8.88;;;;;;;28.79;55.31;98902.09;5106816;28;20055;-57
2021/07/19 09:34:18;;;;;;;12.45;9.30;;;;;;;28.81;54.15;98891.25;5117184;28;20285;-57
2021/07/19 09:37:00;;;;;;;12.20;8.70;;;;;;;28.64;51.06;98888.59;5112331;28;20137;-57
2021/07/19 09:39:27;;;;;;;11.40;8.98;;;;;;;28.57;53.66;98892.91;5104800;28;20063;-56
2021/07/19 09:42:11;;;;;;;10.23;8.95;;;;;;;28.87;54.12;98891.38;5104976;28;20051;-56
2021/07/19 09:44:38;;;;;;;10.07;8.68;;;;;;;28.67;54.32;98845.63;5116073;28;20051;-57
2021/07/19 09:47:07;;;;;;;10.15;8.32;;;;;;;28.87;52.96;98866.56;5116885;28;20047;-56
2021/07/19 09:49:34;;;;;;;9.13;8.20;;;;;;;29.03;52.33;98879.84;5124538;28;20058;-56
2021/07/19 09:52:09;;;;;;;9.15;8.30;;;;;;;28.88;52.17;98841.59;5116574;28;20054;-59
2021/07/19 09:54:39;;;;;;;12.38;8.68;;;;;;;28.96;51.61;98862.88;5116418;28;20075;-59
2021/07/19 09:57:05;;;;;;;9.07;7.57;;;;;;;28.98;50.72;98889.38;5116625;28;20046;-59
2021/07/19 09:59:33;;;;;;;10.57;8.15;;;;;;;29.03;50.82;98884.34;5124231;28;20039;-59
2021/07/19 10:02:00;;;;;;;9.63;8.40;;;;;;;29.19;50.46;98880.81;5110182;28;20046;-59
2021/07/19 10:04:26;;;;;;;9.93;8.10;;;;;;;29.00;50.01;98877.53;5105204;28;20040;-59
2021/07/19 10:06:54;;;;;;;8.80;7.88;;;;;;;28.81;49.47;98837.94;5110879;28;20066;-60
2021/07/19 10:09:21;;;;;;;12.15;7.13;;;;;;;29.22;48.83;98870.59;5104577;28;20050;-61
2021/07/19 10:11:50;;;;;;;7.88;6.93;;;;;;;29.21;49.09;98876.94;5117047;28;20054;-59
2021/07/19 10:14:34;;;;;;;9.73;7.28;;;;;;;28.88;47.59;98878.91;5107701;28;20043;-59
2021/07/19 10:17:00;;;;;;;8.73;7.53;;;;;;;29.08;48.93;98882.00;5110330;28;20054;-59
2021/07/19 10:19:27;;;;;;;11.15;8.55;;;;;;;28.93;49.20;98879.19;5110813;28;20043;-60
2021/07/19 10:21:54;;;;;;;9.75;8.68;;;;;;;29.06;50.15;98881.31;5109552;28;20051;-59
2021/07/19 10:24:20;;;;;;;10.32;8.30;;;;;;;29.14;50.84;98873.31;5107739;28;20274;-59
2021/07/19 10:26:48;;;;;;;13.18;9.25;;;;;;;29.16;50.75;98875.78;5110360;28;20040;-59
2021/07/19 10:29:15;;;;;;;10.43;9.30;;;;;;;29.13;50.82;98878.81;5104220;28;20250;-60
2021/07/19 10:31:42;;;;;;;11.63;9.02;;;;;;;29.14;50.18;98875.97;5107659;28;20054;-61
2021/07/19 10:34:08;;;;;;;10.18;9.02;;;;;;;29.25;49.92;98867.63;5107836;28;20351;-63
2021/07/19 10:36:38;;;;;;;10.27;8.25;;;;;;;29.03;51.25;98837.19;5112381;28;20054;-62
2021/07/19 10:39:11;;;;;;;11.05;8.32;;;;;;;29.39;49.98;98858.06;5104220;28;20054;-62
2021/07/19 10:41:38;;;;;;;9.75;8.30;;;;;;;29.54;49.41;98870.66;5108481;28;20044;-62
2021/07/19 10:44:09;;;;;;;13.23;8.80;;;;;;;29.41;49.32;98869.38;5111980;28;20039;-62
2021/07/19 10:46:36;;;;;;;9.60;8.55;;;;;;;29.39;48.47;98876.72;5109448;28;20040;-61
2021/07/19 10:49:09;;;;;;;11.90;8.43;;;;;;;29.34;49.90;98871.06;5108963;28;20039;-61
2021/07/19 10:51:49;;;;;;;12.93;8.50;;;;;;;29.08;49.56;98844.66;5115208;28;20071;-61
2021/07/19 10:54:18;;;;;;;11.70;8.23;;;;;;;29.11;50.94;98841.66;5122394;28;20070;-62
2021/07/19 10:56:46;;;;;;;9.23;7.63;;;;;;;29.30;51.06;98867.09;5107656;28;20051;-63
2021/07/19 10:59:28;;;;;;;8.27;7.47;;;;;;;29.26;49.07;98865.81;5107380;28;20036;-62
2021/07/19 11:01:56;;;;;;;9.00;8.10;;;;;;;29.05;50.65;98824.50;5103335;28;20043;-61
2021/07/19 11:04:23;;;;;;;8.80;7.72;;;;;;;29.31;48.76;98855.41;5103386;28;20031;-62
2021/07/19 11:06:59;;;;;;;8.48;7.68;;;;;;;29.27;49.48;98860.28;5108650;28;20048;-61
2021/07/19 11:09:39;;;;;;;7.82;6.95;;;;;;;29.37;48.56;98849.41;5119803;28;20043;-62
2021/07/19 11:12:18;;;;;;;8.40;7.45;;;;;;;28.99;48.43;98806.56;5103424;28;20055;-63
2021/07/19 11:14:52;;;;;;;9.20;7.38;;;;;;;29.00;49.40;98807.38;5115170;28;20090;-61
2021/07/19 11:17:20;;;;;;;9.93;7.22;;;;;;;29.15;47.76;98813.63;5105907;28;20059;-61
2021/07/19 11:19:53;;;;;;;8.88;7.32;;;;;;;29.36;49.27;98842.41;5109961;28;20039;-61
2021/07/19 11:22:23;;;;;;;8.57;7.53;;;;;;;29.21;48.68;98804.09;5122727;28;20058;-61
2021/07/19 11:24:52;;;;;;;10.98;7.55;;;;;;;29.08;45.72;98799.34;5119046;28;20031;-60